createdAt,value
2023-04-13T00:02:39.125Z,11.11
2023-04-13T00:07:43.305Z,11.03
2023-04-13T00:12:48.271Z,10.99
2023-04-13T00:17:51.805Z,10.93
2023-04-13T00:22:54.541Z,10.94
2023-04-13T00:28:02.653Z,10.61
2023-04-13T00:33:05.843Z,10.84
2023-04-13T00:38:08.838Z,10.79
2023-04-13T00:43:12.997Z,10.71
2023-04-13T00:48:16.015Z,10.63
2023-04-13T00:53:18.857Z,10.58
2023-04-13T00:58:23.537Z,10.54
2023-04-13T01:03:27.366Z,10.69
2023-04-13T01:08:36.990Z,10.82
2023-04-13T01:13:47.833Z,10.35
2023-04-13T01:18:54.139Z,10.48
2023-04-13T01:24:10.209Z,10.43
2023-04-13T01:29:15.834Z,10.94
2023-04-13T01:34:18.908Z,10.74
2023-04-13T01:39:22.373Z,10.76
2023-04-13T01:44:36.574Z,10.85
2023-04-13T01:49:39.557Z,10.73
2023-04-13T01:54:57.911Z,10.58
2023-04-13T02:00:15.331Z,10.44
2023-04-13T02:05:21.557Z,10.55
2023-04-13T02:10:24.366Z,10.57
2023-04-13T02:15:28.800Z,10.57
2023-04-13T02:20:33.656Z,10.41
2023-04-13T02:25:36.417Z,10.14
2023-04-13T02:30:40.680Z,9.91
2023-04-13T02:35:43.651Z,9.81
2023-04-13T02:40:46.862Z,9.86
2023-04-13T02:45:51.238Z,10.01
2023-04-13T02:50:55.668Z,9.72
2023-04-13T02:56:02.239Z,9.33
2023-04-13T03:01:07.733Z,9.41
2023-04-13T03:06:11.359Z,9.39
2023-04-13T03:11:23.512Z,9.00
2023-04-13T03:16:45.923Z,9.20
2023-04-13T03:21:50.380Z,9.20
2023-04-13T03:26:57.947Z,9.09
2023-04-13T03:32:09.010Z,9.07
2023-04-13T03:37:15.874Z,8.99
2023-04-13T03:42:19.296Z,9.11
2023-04-13T03:47:30.448Z,9.51
2023-04-13T03:52:33.626Z,9.39
2023-04-13T03:57:37.323Z,9.15
2023-04-13T04:02:45.174Z,9.11
2023-04-13T04:07:53.503Z,9.05
2023-04-13T04:12:57.282Z,9.25
2023-04-13T04:18:02.295Z,9.23
2023-04-13T04:23:06.344Z,9.19
2023-04-13T04:28:18.499Z,9.32
2023-04-13T04:33:25.634Z,9.18
2023-04-13T04:38:30.406Z,9.64
2023-04-13T04:43:35.750Z,9.37
2023-04-13T04:48:41.533Z,9.59
2023-04-13T04:53:44.452Z,9.79
2023-04-13T04:58:47.660Z,10.02
2023-04-13T05:03:52.455Z,9.70
2023-04-13T05:09:05.907Z,10.45
2023-04-13T05:14:11.725Z,10.66
2023-04-13T05:19:17.005Z,10.74
2023-04-13T05:24:28.440Z,10.98
2023-04-13T05:29:35.472Z,11.50
2023-04-13T05:34:42.752Z,11.71
2023-04-13T05:39:50.133Z,12.34
2023-04-13T05:44:56.499Z,12.40
2023-04-13T05:50:02.856Z,12.48
2023-04-13T05:55:07.532Z,13.01
2023-04-13T06:00:12.688Z,13.32
2023-04-13T06:05:28.965Z,12.67
2023-04-13T06:10:32.938Z,12.06
2023-04-13T06:15:38.831Z,11.72
2023-04-13T06:20:42.983Z,12.07
2023-04-13T06:25:45.968Z,12.90
2023-04-13T06:30:52.119Z,13.09
2023-04-13T06:35:56.363Z,12.11
2023-04-13T06:41:03.004Z,12.71
2023-04-13T06:46:08.401Z,12.27
2023-04-13T06:51:16.880Z,12.99
2023-04-13T06:56:19.839Z,12.86
2023-04-13T07:01:23.544Z,12.01
2023-04-13T07:06:29.737Z,13.86
2023-04-13T07:11:33.111Z,14.27
2023-04-13T07:16:37.409Z,13.27
2023-04-13T07:21:41.850Z,13.48
2023-04-13T07:26:44.938Z,13.93
2023-04-13T07:31:48.722Z,14.80
2023-04-13T07:36:53.148Z,15.88
2023-04-13T07:41:58.062Z,15.37
2023-04-13T07:47:14.084Z,14.92
2023-04-13T07:52:20.712Z,15.44
2023-04-13T07:57:24.077Z,15.05
2023-04-13T08:02:33.106Z,14.90
2023-04-13T08:07:37.511Z,14.74
2023-04-13T08:12:40.571Z,14.69
2023-04-13T08:17:43.820Z,15.05
2023-04-13T08:22:49.195Z,14.49
2023-04-13T08:27:56.330Z,14.20
2023-04-13T08:32:59.274Z,15.05
2023-04-13T08:38:05.331Z,15.15
2023-04-13T08:43:09.404Z,15.61
2023-04-13T08:48:14.918Z,16.04
2023-04-13T08:53:20.822Z,17.18
2023-04-13T08:58:25.863Z,17.02
2023-04-13T09:03:33.961Z,16.83
2023-04-13T09:08:40.568Z,17.87
2023-04-13T09:13:49.866Z,17.71
2023-04-13T09:18:53.354Z,17.45
2023-04-13T09:24:00.213Z,17.39
2023-04-13T09:29:05.328Z,16.60
2023-04-13T09:34:08.976Z,16.96
2023-04-13T09:39:14.457Z,17.91
2023-04-13T09:44:20.151Z,17.61
2023-04-13T09:49:24.076Z,18.70
2023-04-13T09:54:28.763Z,17.38
2023-04-13T09:59:33.509Z,17.70
2023-04-13T10:04:36.862Z,16.38
2023-04-13T10:09:42.056Z,16.72
2023-04-13T10:14:48.721Z,16.43
2023-04-13T10:19:54.415Z,17.14
2023-04-13T10:24:58.748Z,17.70
2023-04-13T10:30:04.040Z,16.12
2023-04-13T10:35:10.536Z,16.87
2023-04-13T10:40:16.265Z,17.84
2023-04-13T10:45:21.719Z,18.67
2023-04-13T10:50:27.613Z,18.41
2023-04-13T10:55:32.517Z,17.30
2023-04-13T11:00:44.542Z,18.54
2023-04-13T11:05:49.923Z,18.48
2023-04-13T11:10:55.148Z,18.04
2023-04-13T11:16:04.639Z,18.55
2023-04-13T11:21:15.129Z,18.04
2023-04-13T11:26:19.651Z,18.43
2023-04-13T11:31:22.832Z,19.78
2023-04-13T11:36:26.545Z,19.33
2023-04-13T11:41:32.819Z,18.97
2023-04-13T11:46:35.772Z,17.60
2023-04-13T11:51:38.991Z,16.87
2023-04-13T11:56:43.251Z,18.68
2023-04-13T12:01:53.186Z,19.19
2023-04-13T12:07:10.238Z,19.01
2023-04-13T12:17:39.185Z,18.63
2023-04-13T12:27:54.423Z,18.11
2023-04-13T12:32:57.215Z,18.31
2023-04-13T12:38:00.308Z,17.92
2023-04-13T12:43:04.586Z,18.96
2023-04-13T12:48:09.121Z,19.61
2023-04-13T12:53:12.043Z,18.65
2023-04-13T12:58:16.157Z,19.93
2023-04-13T13:03:19.107Z,18.69
2023-04-13T13:08:22.065Z,20.06
2023-04-13T13:13:26.436Z,20.60
2023-04-13T13:18:42.409Z,20.83
2023-04-13T13:23:51.888Z,18.34
2023-04-13T13:28:56.004Z,19.12
2023-04-13T13:33:58.906Z,19.50
2023-04-13T13:39:01.795Z,19.45
2023-04-13T13:44:06.129Z,19.08
2023-04-13T13:49:09.152Z,18.68
2023-04-13T13:54:28.940Z,19.70
2023-04-13T13:59:33.062Z,18.81
2023-04-13T14:04:36.594Z,19.02
2023-04-13T14:09:39.387Z,17.76
2023-04-13T14:14:43.560Z,16.81
2023-04-13T14:19:46.416Z,15.94
2023-04-13T14:24:51.712Z,15.48
2023-04-13T14:29:55.906Z,15.99
2023-04-13T14:35:00.491Z,15.99
2023-04-13T14:40:05.088Z,16.58
2023-04-13T14:45:11.283Z,17.36
2023-04-13T14:50:15.449Z,17.10
2023-04-13T14:55:19.268Z,18.09
2023-04-13T15:00:38.455Z,18.05
2023-04-13T15:05:42.280Z,16.76
2023-04-13T15:10:45.761Z,17.77
2023-04-13T15:15:51.906Z,17.85
2023-04-13T15:20:55.074Z,17.76
2023-04-13T15:25:57.997Z,17.02
2023-04-13T15:31:02.079Z,17.90
2023-04-13T15:36:05.733Z,17.37
2023-04-13T15:41:09.950Z,18.33
2023-04-13T15:46:14.267Z,17.42
2023-04-13T15:51:17.233Z,17.50
2023-04-13T15:56:20.560Z,17.68
2023-04-13T16:01:25.488Z,18.26
2023-04-13T16:06:28.548Z,17.93
2023-04-13T16:11:32.206Z,17.99
2023-04-13T16:16:44.147Z,16.69
2023-04-13T16:21:50.788Z,16.79
2023-04-13T16:26:53.614Z,17.32
2023-04-13T16:31:57.896Z,15.21
2023-04-13T16:37:00.748Z,13.87
2023-04-13T16:42:03.581Z,14.53
2023-04-13T16:47:07.951Z,13.99
2023-04-13T16:52:10.753Z,14.04
2023-04-13T16:57:13.530Z,14.30
2023-04-13T17:02:30.723Z,14.91
2023-04-13T17:07:34.599Z,15.72
2023-04-13T17:12:37.780Z,16.44
2023-04-13T17:17:46.421Z,16.45
2023-04-13T17:22:49.317Z,16.37
2023-04-13T17:27:53.383Z,15.75
2023-04-13T17:32:58.564Z,15.69
2023-04-13T17:38:01.483Z,14.70
2023-04-13T17:43:05.682Z,14.94
2023-04-13T17:48:11.042Z,14.88
2023-04-13T17:53:13.817Z,14.53
2023-04-13T17:58:16.609Z,14.40
2023-04-13T18:03:20.985Z,14.44
2023-04-13T18:08:23.844Z,14.28
2023-04-13T18:13:27.244Z,13.46
2023-04-13T18:18:31.455Z,13.98
2023-04-13T18:23:35.591Z,14.07
2023-04-13T18:28:38.630Z,13.09
2023-04-13T18:33:44.001Z,13.41
2023-04-13T18:38:49.816Z,13.89
2023-04-13T18:43:52.596Z,13.99
2023-04-13T18:48:56.843Z,13.73
2023-04-13T18:54:00.071Z,13.08
2023-04-13T18:59:03.089Z,14.35
2023-04-13T19:04:07.442Z,13.94
2023-04-13T19:09:10.407Z,14.14
2023-04-13T19:14:13.235Z,14.29
2023-04-13T19:19:18.914Z,14.34
2023-04-13T19:24:22.171Z,13.53
2023-04-13T19:29:26.901Z,13.56
2023-04-13T19:34:31.391Z,14.23
2023-04-13T19:39:36.568Z,14.78
2023-04-13T19:44:39.592Z,14.64
2023-04-13T19:49:44.060Z,14.21
2023-04-13T19:54:47.299Z,14.49
2023-04-13T19:59:50.240Z,14.25
2023-04-13T20:04:54.629Z,13.93
2023-04-13T20:09:57.492Z,13.75
2023-04-13T20:15:00.356Z,13.84
2023-04-13T20:20:06.430Z,13.88
2023-04-13T20:25:11.212Z,13.59
2023-04-13T20:30:14.661Z,13.54
2023-04-13T20:35:19.908Z,13.50
2023-04-13T20:40:26.999Z,13.41
2023-04-13T20:45:30.407Z,13.37
2023-04-13T20:50:35.688Z,13.35
2023-04-13T20:55:39.198Z,13.28
2023-04-13T21:00:42.492Z,13.24
2023-04-13T21:05:46.683Z,13.35
2023-04-13T21:10:49.897Z,12.98
2023-04-13T21:15:52.687Z,13.00
2023-04-13T21:20:56.840Z,13.20
2023-04-13T21:25:59.595Z,13.17
2023-04-13T21:31:02.488Z,12.81
2023-04-13T21:41:16.491Z,12.52
2023-04-13T21:46:19.417Z,12.58
2023-04-13T21:51:23.545Z,12.71
2023-04-13T21:56:27.206Z,12.76
2023-04-13T22:01:30.073Z,12.91
2023-04-13T22:06:34.318Z,12.78
2023-04-13T22:11:37.078Z,12.71
2023-04-13T22:16:39.847Z,12.58
2023-04-13T22:21:43.974Z,12.71
2023-04-13T22:26:47.029Z,12.04
2023-04-13T22:31:49.811Z,12.27
2023-04-13T22:36:54.748Z,12.24
2023-04-13T22:41:58.158Z,12.48
2023-04-13T22:47:01.062Z,12.55
2023-04-13T22:52:05.614Z,12.63
2023-04-13T22:57:08.346Z,12.61
2023-04-13T23:02:12.402Z,12.34
2023-04-13T23:07:16.552Z,12.27
2023-04-13T23:12:19.292Z,12.16
2023-04-13T23:17:22.070Z,12.00
2023-04-13T23:22:26.494Z,11.89
2023-04-13T23:27:29.344Z,11.74
2023-04-13T23:32:32.080Z,11.75
2023-04-13T23:37:36.215Z,11.90
2023-04-13T23:42:38.983Z,11.98
2023-04-13T23:47:42.266Z,12.04
2023-04-13T23:52:46.645Z,12.10
2023-04-13T23:57:49.379Z,11.92
